• Join FlightAware (Why Join?)
  • Login
  • US Flag 
03:01AM EDT


 

Airport Tracker/Info


-or-


 

Live Flight TrackerFlight Track Log ✈ SWA2005 ✈ 12-Jul-2013 ✈ KSJC - KPHX

Flight Track Log - Related Links

Times and Time Zones

All times are in EDT time to prevent confusion due to time zone crossing. See the SWA2005 flight status page for this flight to view local times or setup timezone preferences in your user account.

Time Position Orientation Groundspeed Altitude Reporting Facility
EDT Latitude Longitude Course Direction KTS MPH feet Rate Location/Type
01:41AM 37.4000 -121.9667 138° Southeast 184 212 3,500  Level Northern Cal TRACON
01:43AM 37.3903 -121.8511 96° East 236 272 4,900 780 Climbing Oakland Center
01:44AM 37.3281 -121.7886 141° Southeast 258 297 6,400 2,520 Climbing Oakland Center
01:45AM 37.2706 -121.7214 137° Southeast 280 322 10,000 3,180 Climbing Oakland Center
01:46AM 37.1520 -121.3105 138° Southeast  Level Estimated
01:46AM 37.2047 -121.6481 138° Southeast 314 361 12,900  Level Oakland Center
01:48AM 37.1303 -121.5631 138° Southeast 356 410 16,800 3,900 Climbing Oakland Center
01:49AM 37.0433 -121.4672 139° Southeast 380 437 20,800 3,600 Climbing Oakland Center
01:50AM 36.9625 -121.3778 139° Southeast 389 448 24,100 3,000 Climbing Oakland Center
01:51AM 36.8883 -121.2692 130° Southeast 411 473 26,900 2,640 Climbing Oakland Center
01:52AM 36.8322 -121.1383 118° Southeast 427 491 29,500 2,280 Climbing Oakland Center
01:53AM 36.7742 -121.0200 121° Southeast 434 499 31,500 2,280 Climbing Oakland Center
01:54AM 36.7122 -120.8817 119° Southeast 451 519 34,100 2,700 Climbing Oakland Center
01:55AM 36.6392 -120.7275 121° Southeast 434 499 37,000 2,160 Climbing Oakland Center
01:56AM 36.5786 -120.5986 120° Southeast 433 498 38,600 1,680 Climbing Oakland Center
01:57AM 36.5181 -120.4669 120° Southeast 436 502 40,400 1,140 Climbing Oakland Center
01:58AM 36.4569 -120.3414 121° Southeast 426 490 41,000 240 Climbing Oakland Center
01:59AM 36.3953 -120.2092 120° Southeast 436 502 41,000  Level Oakland Center
02:00AM 36.3336 -120.0783 120° Southeast 439 505 41,000  Level Oakland Center
02:01AM 36.2703 -119.9483 121° Southeast 438 504 41,000  Level Oakland Center
02:02AM 36.2092 -119.8175 120° Southeast 439 505 41,000  Level Oakland Center
02:03AM 36.1467 -119.6872 121° Southeast 438 504 41,000  Level Oakland Center
02:04AM 36.0836 -119.5578 121° Southeast 437 503 41,000  Level Oakland Center
02:05AM 36.0217 -119.4303 121° Southeast 434 499 41,000  Level Oakland Center
02:06AM 35.9606 -119.3050 121° Southeast 427 491 41,000  Level Oakland Center
02:07AM 35.9006 -119.1781 120° Southeast 427 491 41,000  Level Oakland Center
02:08AM 35.8372 -119.0519 122° Southeast 430 495 41,000  Level Oakland Center
02:09AM 35.7753 -118.9256 121° Southeast 431 496 41,000  Level Oakland Center
02:10AM 35.7136 -118.8003 121° Southeast 429 494 41,000  Level Oakland Center
02:11AM 35.6508 -118.6753 122° Southeast 428 493 41,000  Level Oakland Center
02:12AM 35.5894 -118.5517 121° Southeast 425 489 41,000  Level Oakland Center
02:13AM 35.5272 -118.4267 121° Southeast 427 491 41,000  Level Oakland Center
02:14AM 35.4642 -118.3014 122° Southeast 432 497 41,000  Level Oakland Center
02:15AM 35.4017 -118.1764 121° Southeast 429 494 41,000  Level Oakland Center
02:16AM 35.3381 -118.0503 122° Southeast 434 499 41,000  Level Oakland Center
02:17AM 35.2533 -117.8814 122° Southeast 431 496 41,000  Level Los Angeles Center
02:18AM 35.1903 -117.7575 122° Southeast 429 494 41,000  Level Los Angeles Center
02:19AM 35.1231 -117.6267 122° Southeast 429 494 41,000  Level Los Angeles Center
02:20AM 35.0600 -117.5036 122° Southeast 432 497 41,000  Level Los Angeles Center
02:21AM 34.9897 -117.3678 122° Southeast 446 513 41,000  Level Los Angeles Center
02:22AM 34.9272 -117.2439 122° Southeast 439 505 41,000  Level Los Angeles Center
02:23AM 34.8642 -117.1228 122° Southeast 428 493 41,000  Level Los Angeles Center
02:24AM 34.7997 -116.9992 122° Southeast 430 495 41,000  Level Los Angeles Center
02:25AM 34.7358 -116.8761 122° Southeast 434 499 41,000  Level Los Angeles Center
02:26AM 34.6792 -116.7503 119° Southeast 421 484 41,000  Level Los Angeles Center
02:27AM 34.6236 -116.6225 118° Southeast 425 489 41,000  Level Los Angeles Center
02:28AM 34.5672 -116.4953 118° Southeast 427 491 41,000  Level Los Angeles Center
02:29AM 34.5117 -116.3706 118° Southeast 420 483 41,000  Level Los Angeles Center
02:30AM 34.4561 -116.2453 118° Southeast 421 484 41,000  Level Los Angeles Center
02:31AM 34.4008 -116.1194 118° Southeast 424 488 41,000  Level Los Angeles Center
02:32AM 34.3464 -115.9972 118° Southeast 416 479 41,000  Level Los Angeles Center
02:33AM 34.2811 -115.8533 119° Southeast 419 482 41,000  Level Los Angeles Center
02:34AM 34.2264 -115.7311 118° Southeast 413 475 41,000  Level Los Angeles Center
02:35AM 34.1722 -115.6122 119° Southeast 405 466 41,000  Level Los Angeles Center
02:36AM 34.1175 -115.4931 119° Southeast 404 465 41,000  Level Los Angeles Center
02:37AM 34.0633 -115.3744 119° Southeast 402 463 41,000  Level Los Angeles Center
02:38AM 34.0097 -115.2581 119° Southeast 398 458 41,000  Level Los Angeles Center
02:39AM 33.9553 -115.1400 119° Southeast 400 460 41,000  Level Los Angeles Center
02:40AM 33.9006 -115.0214 119° Southeast 401 461 41,000  Level Los Angeles Center
02:41AM 33.8464 -114.9036 119° Southeast 401 461 41,000 -60 Level Los Angeles Center
02:42AM 33.7917 -114.7861 119° Southeast 401 461 40,900 -780 Descending Los Angeles Center
02:43AM 33.7414 -114.6758 119° Southeast 379 436 39,500 -1,620 Descending Los Angeles Center
02:45AM 33.6881 -114.5658 120° Southeast 379 436 37,300 -2,580 Descending Los Angeles Center
02:46AM 33.6264 -114.4308 119° Southeast 384 442 33,900 -3,480 Descending Los Angeles Center
02:46AM 33.5978 -114.3656 118° Southeast 392 451 32,000 -3,360 Descending Albuquerque Center
02:47AM 33.5414 -114.2464 120° Southeast 407 468 28,800 -3,420 Descending Albuquerque Center
02:48AM 33.4836 -114.1222 119° Southeast 421 484 25,200 -1,920 Descending Albuquerque Center
02:49AM 33.4461 -113.9933 109° East 415 478 25,000 -120 Descending Albuquerque Center
02:50AM 33.4289 -113.8553 98° East 416 479 25,000  Level Albuquerque Center
02:51AM 33.4097 -113.7208 100° East 413 475 25,000  Level Albuquerque Center
02:52AM 33.3897 -113.5842 100° East 415 478 25,000 -660 Level Albuquerque Center
02:53AM 33.3708 -113.4489 99° East 413 475 23,700 -1,980 Descending Albuquerque Center
02:54AM 33.3525 -113.3172 99° East 404 465 21,100 -2,580 Descending Albuquerque Center
02:55AM 33.3350 -113.1897 99° East 394 453 18,500 -2,580 Descending Albuquerque Center
02:56AM 33.3169 -113.0681 100° East 379 436 16,000 -1,980 Descending Albuquerque Center
02:57AM 33.3172 -112.9483 90° East 368 423 14,600 -1,200 Descending Albuquerque Center
02:58AM 33.3319 -112.8397 81° East 342 394 13,600 -1,380 Descending Albuquerque Center
02:59AM 33.3478 -112.7406 79° East 313 360 11,900 -1,740 Descending Albuquerque Center
03:00AM 33.3631 -112.6417 79° East 305 351 10,200 -1,800 Descending Albuquerque Center
03:01AM 33.3794 -112.5444 79° East 293 337 8,300 -1,380 Descending Albuquerque Center
03:02AM 33.3928 -112.4486 81° East 292 336 7,500 -1,200 Descending Albuquerque Center
03:03AM 33.4025 -112.3603 82° East 274 315 5,900 -1,680 Descending Albuquerque Center
03:04AM 33.4142 -112.2669 81° East 281 323 4,200 -1,440 Descending Albuquerque Center
03:05AM 33.4244 -112.1794 82° East 271 312 3,000 -900 Descending Albuquerque Center
03:06AM 33.4333 -112.1167 80° East 177 204 2,500 -660 Descending Phoenix TRACON
03:07AM 33.4333 -112.0667 90° East 133 153 1,800 -720 Descending Phoenix TRACON
03:10AM 33.4343 -112.0116 82° East  Level Estimated